Time;durP1;ratioP1;P1;durP2;ratioP2;P2;SDS_P1;SDS_P2;PMS_P1;PMS_P2;Temp;Humidity;BMP_temperature;BMP_pressure;BME280_temperature;BME280_humidity;BME280_pressure;Samples;Min_cycle;Max_cycle;Signal;HPM_P1;HPM_P2
2022/04/03 00:00:44;;;;;;;5.53;2.97;;;4.10;90.70;;;;;;5047319;28;20601;-34
2022/04/03 00:03:14;;;;;;;4.23;2.80;;;4.10;90.70;;;;;;5047791;28;20640;-34
2022/04/03 00:05:42;;;;;;;4.47;2.60;;;4.00;90.70;;;;;;5052012;28;20282;-34
2022/04/03 00:08:12;;;;;;;4.17;2.70;;;4.00;90.70;;;;;;5054580;28;20242;-34
2022/04/03 00:10:45;;;;;;;4.53;2.70;;;4.00;90.60;;;;;;5064952;28;20211;-34
2022/04/03 00:13:12;;;;;;;5.07;2.90;;;3.90;90.60;;;;;;5048209;28;20200;-34
2022/04/03 00:15:42;;;;;;;4.43;2.70;;;3.90;90.60;;;;;;5058690;28;20306;-34
2022/04/03 00:18:12;;;;;;;5.40;3.07;;;3.90;90.60;;;;;;5065771;28;20211;-34
2022/04/03 00:20:43;;;;;;;4.93;2.30;;;3.80;90.50;;;;;;5066483;28;20203;-34
2022/04/03 00:23:10;;;;;;;4.27;2.47;;;3.80;90.50;;;;;;5067024;28;20192;-35
2022/04/03 00:25:40;;;;;;;3.47;2.33;;;3.80;90.50;;;;;;5066430;28;20418;-34
2022/04/03 00:28:10;;;;;;;6.40;2.67;;;3.80;90.50;;;;;;5056735;28;20192;-34
2022/04/03 00:30:37;;;;;;;5.33;3.00;;;3.70;90.50;;;;;;5057842;28;20227;-34
2022/04/03 00:33:08;;;;;;;6.40;2.90;;;3.70;90.50;;;;;;5065634;28;20191;-34
2022/04/03 00:35:38;;;;;;;5.10;2.87;;;3.60;90.40;;;;;;5059749;28;20215;-34
2022/04/03 00:38:06;;;;;;;5.83;3.13;;;3.60;90.40;;;;;;5071189;28;20331;-33
2022/04/03 00:40:35;;;;;;;5.90;2.90;;;3.60;90.40;;;;;;5070858;28;20577;-34
2022/04/03 00:43:05;;;;;;;6.43;2.80;;;3.50;90.40;;;;;;5070650;28;20253;-34
2022/04/03 00:45:52;;;;;;;4.03;2.60;;;3.50;90.50;;;;;;5069439;28;20654;-34
2022/04/03 00:48:20;;;;;;;7.50;3.10;;;3.40;90.40;;;;;;5069102;28;20254;-33
2022/04/03 00:50:53;;;;;;;6.17;2.60;;;3.40;90.40;;;;;;5068117;28;20200;-33
2022/04/03 00:53:23;;;;;;;3.30;2.60;;;3.40;90.40;;;;;;5053482;28;20211;-33
2022/04/03 00:55:52;;;;;;;5.27;2.67;;;3.30;90.40;;;;;;5066247;28;20301;-33
2022/04/03 00:58:24;;;;;;;6.40;2.93;;;3.30;90.40;;;;;;5069292;28;20327;-34
2022/04/03 01:00:56;;;;;;;5.37;2.60;;;3.20;90.30;;;;;;5070368;28;20677;-33
2022/04/03 01:03:23;;;;;;;3.80;2.47;;;3.20;90.30;;;;;;5068459;28;20281;-34
2022/04/03 01:05:51;;;;;;;6.90;2.60;;;3.20;90.30;;;;;;5068859;28;20330;-34
2022/04/03 01:08:18;;;;;;;4.73;2.33;;;3.20;90.30;;;;;;5062383;28;20211;-34
2022/04/03 01:10:51;;;;;;;4.77;2.73;;;3.20;90.30;;;;;;5073673;28;20282;-33
2022/04/03 01:13:21;;;;;;;4.07;2.70;;;3.10;90.20;;;;;;5081096;28;20208;-34
2022/04/03 01:15:57;;;;;;;3.80;2.70;;;3.10;90.20;;;;;;5060988;28;20218;-34
2022/04/03 01:18:27;;;;;;;4.93;2.50;;;3.10;90.20;;;;;;5065102;28;20203;-33
2022/04/03 01:21:02;;;;;;;3.90;2.43;;;3.10;90.20;;;;;;5055088;28;20675;-34
2022/04/03 01:23:32;;;;;;;6.27;2.70;;;3.10;90.20;;;;;;5068651;28;20849;-34
2022/04/03 01:25:59;;;;;;;3.70;2.87;;;3.10;90.20;;;;;;5066075;28;20230;-34
2022/04/03 01:28:26;;;;;;;3.70;2.50;;;3.10;90.20;;;;;;5065977;28;20614;-34
2022/04/03 01:30:56;;;;;;;5.97;2.97;;;3.00;90.10;;;;;;5068338;28;20199;-34
2022/04/03 01:33:23;;;;;;;4.07;2.53;;;3.00;90.10;;;;;;5070299;28;20257;-34
2022/04/03 01:35:53;;;;;;;4.70;2.80;;;3.00;90.10;;;;;;5059541;28;20192;-35
2022/04/03 01:38:25;;;;;;;4.17;2.50;;;3.00;90.10;;;;;;5050021;28;20592;-34
2022/04/03 01:40:52;;;;;;;5.73;2.63;;;3.00;90.10;;;;;;5061132;28;20645;-33
2022/04/03 01:43:22;;;;;;;5.07;2.90;;;2.90;90.10;;;;;;5067554;28;20306;-34
2022/04/03 01:45:51;;;;;;;4.53;2.60;;;2.90;90.10;;;;;;5066924;28;20899;-34
2022/04/03 01:48:19;;;;;;;6.13;2.90;;;2.90;90.00;;;;;;5069629;28;20296;-33
2022/04/03 01:50:51;;;;;;;3.77;2.73;;;2.90;90.00;;;;;;5069148;28;20261;-34
2022/04/03 01:53:22;;;;;;;6.03;2.83;;;2.80;90.00;;;;;;5069837;28;20199;-34
2022/04/03 01:56:01;;;;;;;3.80;2.50;;;2.80;90.00;;;;;;5069299;28;20581;-34
2022/04/03 01:58:35;;;;;;;4.30;2.70;;;2.80;90.00;;;;;;5049491;28;20283;-34
2022/04/03 02:01:04;;;;;;;5.50;3.03;;;2.70;90.00;;;;;;5057536;28;20227;-33
2022/04/03 02:03:31;;;;;;;4.83;2.70;;;2.70;90.00;;;;;;5066992;28;20678;-34
2022/04/03 02:05:59;;;;;;;5.00;2.60;;;2.60;90.00;;;;;;5064759;28;20204;-33
2022/04/03 02:08:28;;;;;;;5.40;3.00;;;2.60;90.00;;;;;;5049300;28;21079;-34
2022/04/03 02:10:56;;;;;;;3.90;2.50;;;2.60;90.00;;;;;;5058138;28;20634;-34
2022/04/03 02:13:23;;;;;;;6.00;2.90;;;2.60;90.00;;;;;;5067627;28;20585;-40
2022/04/03 02:15:53;;;;;;;5.80;2.50;;;2.50;90.00;;;;;;5065925;28;20291;-40
2022/04/03 02:18:20;;;;;;;4.67;2.90;;;2.50;90.00;;;;;;5064572;28;20234;-40
2022/04/03 02:20:50;;;;;;;5.53;2.80;;;2.50;90.00;;;;;;5064389;28;20203;-40
2022/04/03 02:23:17;;;;;;;4.87;2.67;;;2.40;90.00;;;;;;5066672;28;20213;-40
2022/04/03 02:25:49;;;;;;;4.93;2.60;;;2.40;90.00;;;;;;5053965;28;20204;-41
2022/04/03 02:28:22;;;;;;;4.57;2.90;;;2.40;90.00;;;;;;5048731;28;20309;-40
2022/04/03 02:30:49;;;;;;;8.33;3.10;;;2.30;89.90;;;;;;5050913;28;20197;-40
2022/04/03 02:33:21;;;;;;;3.60;2.40;;;2.30;89.90;;;;;;5057412;28;20303;-40
2022/04/03 02:35:49;;;;;;;6.23;2.53;;;2.20;89.90;;;;;;5058236;28;20235;-40
2022/04/03 02:38:18;;;;;;;5.90;3.17;;;2.20;89.90;;;;;;5067553;28;20239;-40
2022/04/03 02:40:48;;;;;;;6.33;2.87;;;2.10;89.90;;;;;;5067585;28;20196;-40
2022/04/03 02:43:18;;;;;;;4.47;2.70;;;2.10;89.90;;;;;;5048961;28;20196;-40
2022/04/03 02:45:47;;;;;;;4.40;2.57;;;2.10;89.90;;;;;;5050221;28;20212;-40
2022/04/03 02:48:19;;;;;;;4.90;2.67;;;2.00;89.70;;;;;;5047592;28;20212;-40
2022/04/03 02:50:50;;;;;;;3.53;2.30;;;2.00;89.80;;;;;;5033229;28;20200;-40
2022/04/03 02:53:17;;;;;;;5.30;2.50;;;2.00;89.70;;;;;;5060765;28;20233;-40
2022/04/03 02:55:47;;;;;;;5.30;2.70;;;2.00;89.70;;;;;;5067598;28;20291;-40
2022/04/03 02:58:14;;;;;;;4.60;2.60;;;2.00;89.70;;;;;;5067619;28;20714;-40
2022/04/03 03:00:45;;;;;;;6.90;2.73;;;2.00;89.70;;;;;;5066546;28;20196;-40
2022/04/03 03:03:17;;;;;;;6.83;4.00;;;1.90;89.60;;;;;;5050655;28;20216;-40
2022/04/03 03:05:49;;;;;;;4.77;2.70;;;1.90;89.60;;;;;;5061188;28;20204;-40
2022/04/03 03:08:19;;;;;;;5.60;2.63;;;1.90;89.60;;;;;;5050981;28;20608;-40
2022/04/03 03:10:49;;;;;;;3.40;2.60;;;1.90;89.50;;;;;;5066852;28;20726;-40
2022/04/03 03:13:19;;;;;;;6.67;2.80;;;1.80;89.40;;;;;;5065923;28;20199;-40
2022/04/03 03:15:46;;;;;;;3.10;2.57;;;1.80;89.50;;;;;;5063656;28;20207;-40
2022/04/03 03:18:13;;;;;;;5.13;2.87;;;1.80;89.50;;;;;;5066071;28;20207;-40
2022/04/03 03:20:43;;;;;;;5.50;2.87;;;1.80;89.50;;;;;;5050785;28;20188;-40
2022/04/03 03:23:15;;;;;;;5.00;2.83;;;1.70;89.50;;;;;;5067905;28;20307;-40
2022/04/03 03:25:47;;;;;;;6.10;2.57;;;1.70;89.50;;;;;;5059281;28;20738;-40
2022/04/03 03:28:16;;;;;;;4.63;2.83;;;1.70;89.60;;;;;;5053763;28;20329;-40
2022/04/03 03:30:44;;;;;;;4.17;3.00;;;1.70;89.60;;;;;;5065969;28;20199;-40
2022/04/03 03:33:11;;;;;;;6.47;2.90;;;1.70;89.60;;;;;;5066890;28;20721;-40
2022/04/03 03:35:42;;;;;;;3.97;2.40;;;1.70;89.60;;;;;;5057811;28;20291;-40
2022/04/03 03:38:12;;;;;;;4.80;3.00;;;1.70;89.60;;;;;;5047955;28;20396;-40
2022/04/03 03:40:42;;;;;;;5.07;3.23;;;1.60;89.50;;;;;;5064313;28;20345;-40
2022/04/03 03:43:10;;;;;;;4.10;2.30;;;1.60;89.50;;;;;;5047202;28;20211;-40
2022/04/03 03:45:40;;;;;;;6.17;2.60;;;1.60;89.50;;;;;;5058437;28;20303;-40
2022/04/03 03:48:13;;;;;;;5.03;3.10;;;1.60;89.40;;;;;;5046300;28;20331;-39
2022/04/03 03:50:42;;;;;;;4.67;3.10;;;1.60;89.50;;;;;;5064581;28;20199;-40
2022/04/03 03:53:09;;;;;;;5.77;3.00;;;1.60;89.50;;;;;;5074248;28;20249;-40
2022/04/03 03:55:37;;;;;;;4.93;2.70;;;1.60;89.50;;;;;;5074080;28;20351;-40
2022/04/03 03:58:04;;;;;;;4.13;2.50;;;1.60;89.60;;;;;;5062978;28;20200;-40
2022/04/03 04:00:32;;;;;;;3.63;2.50;;;1.60;89.50;;;;;;5066416;28;20199;-40
2022/04/03 04:03:04;;;;;;;4.37;2.43;;;1.60;89.50;;;;;;5067254;28;20234;-40
2022/04/03 04:05:31;;;;;;;5.67;2.90;;;1.60;89.60;;;;;;5065382;28;20256;-40
2022/04/03 04:08:01;;;;;;;4.80;2.80;;;1.60;89.60;;;;;;5047195;28;20315;-40
2022/04/03 04:10:28;;;;;;;5.70;3.00;;;1.60;89.60;;;;;;5059954;28;20192;-40
2022/04/03 04:12:58;;;;;;;7.40;2.63;;;1.60;89.60;;;;;;5047179;28;20228;-40
2022/04/03 04:15:30;;;;;;;5.50;2.93;;;1.50;89.60;;;;;;5047563;28;20564;-40
2022/04/03 04:17:59;;;;;;;5.70;2.70;;;1.50;89.60;;;;;;5056493;28;20233;-40
2022/04/03 04:20:31;;;;;;;5.60;3.00;;;1.50;89.60;;;;;;5065837;28;20341;-40
2022/04/03 04:22:59;;;;;;;4.87;2.77;;;1.50;89.60;;;;;;5067431;28;20253;-40
2022/04/03 04:25:29;;;;;;;6.47;2.77;;;1.50;89.60;;;;;;5065568;28;20213;-40
2022/04/03 04:28:02;;;;;;;6.17;3.10;;;1.60;89.60;;;;;;5066770;28;20231;-40
2022/04/03 04:30:32;;;;;;;7.23;2.97;;;1.60;89.70;;;;;;5061057;28;20208;-40
2022/04/03 04:33:03;;;;;;;4.40;2.90;;;1.60;89.70;;;;;;5047604;28;20250;-40
2022/04/03 04:35:32;;;;;;;3.90;2.80;;;1.60;89.70;;;;;;5048481;28;20680;-40
2022/04/03 04:38:02;;;;;;;5.50;2.93;;;1.60;89.70;;;;;;5052267;28;20208;-40
2022/04/03 04:40:30;;;;;;;4.77;2.73;;;1.60;89.60;;;;;;5060325;28;20424;-40
2022/04/03 04:42:57;;;;;;;4.77;3.20;;;1.60;89.80;;;;;;5066806;28;20207;-40
2022/04/03 04:45:25;;;;;;;9.03;3.07;;;1.60;89.60;;;;;;5059928;28;20291;-40
2022/04/03 04:47:59;;;;;;;5.53;3.17;;;1.60;89.80;;;;;;5047232;28;20667;-40
2022/04/03 04:50:32;;;;;;;4.67;2.90;;;1.60;89.80;;;;;;5059059;28;20205;-40
2022/04/03 04:52:59;;;;;;;5.73;3.20;;;1.60;89.70;;;;;;5067183;28;20196;-40
2022/04/03 04:55:27;;;;;;;5.63;3.00;;;1.60;89.80;;;;;;5063879;28;20241;-41
2022/04/03 04:57:56;;;;;;;4.83;2.90;;;1.60;89.70;;;;;;5052118;28;20246;-40
2022/04/03 05:00:30;;;;;;;4.87;2.93;;;1.60;89.80;;;;;;5048643;28;20208;-41
2022/04/03 05:03:05;;;;;;;4.37;2.73;;;1.60;89.90;;;;;;5050851;28;20568;-40
2022/04/03 05:05:32;;;;;;;4.13;3.17;;;1.60;90.00;;;;;;5059516;28;20250;-40
2022/04/03 05:08:01;;;;;;;4.33;3.23;;;1.60;89.90;;;;;;5063406;28;20686;-41
2022/04/03 05:10:32;;;;;;;6.33;3.17;;;1.50;89.80;;;;;;5055382;28;20207;-40
2022/04/03 05:13:02;;;;;;;7.03;2.90;;;1.50;90.00;;;;;;5066516;28;20214;-40
2022/04/03 05:15:33;;;;;;;6.47;3.73;;;1.50;89.90;;;;;;5063740;28;20709;-40
2022/04/03 05:18:04;;;;;;;4.27;3.07;;;1.50;90.00;;;;;;5067444;28;20207;-40
2022/04/03 05:20:33;;;;;;;5.07;3.03;;;1.50;90.00;;;;;;5056733;28;20315;-40
2022/04/03 05:23:02;;;;;;;5.43;3.50;;;1.50;89.90;;;;;;5069508;28;20212;-40
2022/04/03 05:25:32;;;;;;;5.47;2.90;;;1.50;90.00;;;;;;5069845;28;20200;-40
2022/04/03 05:27:59;;;;;;;7.03;3.53;;;1.50;90.00;;;;;;5069222;28;20285;-40
2022/04/03 05:30:27;;;;;;;5.00;3.00;;;1.40;89.90;;;;;;5057522;28;20207;-40
2022/04/03 05:32:57;;;;;;;5.13;3.60;;;1.40;89.90;;;;;;5049081;28;20696;-40
2022/04/03 05:35:24;;;;;;;5.13;3.53;;;1.40;90.00;;;;;;5056706;28;20623;-40
2022/04/03 05:37:52;;;;;;;4.17;2.77;;;1.40;90.00;;;;;;5059320;28;20203;-40
2022/04/03 05:40:19;;;;;;;6.30;3.70;;;1.40;90.00;;;;;;5054739;28;20290;-40
2022/04/03 05:42:46;;;;;;;8.40;3.67;;;1.40;90.00;;;;;;5062066;28;20219;-40
2022/04/03 05:45:13;;;;;;;5.70;3.47;;;1.40;90.00;;;;;;5055242;28;21047;-40
2022/04/03 05:47:44;;;;;;;7.03;3.60;;;1.40;90.00;;;;;;5061919;28;20239;-40
2022/04/03 05:50:17;;;;;;;6.63;3.30;;;1.40;90.00;;;;;;5063828;28;20207;-40
2022/04/03 05:52:47;;;;;;;7.97;3.37;;;1.40;90.10;;;;;;5063384;28;20873;-40
2022/04/03 05:55:18;;;;;;;6.83;3.47;;;1.40;90.10;;;;;;5056045;28;20752;-41
2022/04/03 05:57:50;;;;;;;6.87;3.77;;;1.40;90.10;;;;;;5058963;28;20192;-40
2022/04/03 06:00:20;;;;;;;6.40;3.00;;;1.40;90.10;;;;;;5049713;28;20211;-40
2022/04/03 06:02:47;;;;;;;5.50;3.60;;;1.40;90.20;;;;;;5052862;28;20204;-41
2022/04/03 06:05:20;;;;;;;7.40;3.47;;;1.40;90.20;;;;;;5053343;28;20620;-40
2022/04/03 06:07:51;;;;;;;6.50;3.70;;;1.40;90.20;;;;;;5067942;28;20310;-40
2022/04/03 06:10:20;;;;;;;4.63;3.30;;;1.50;90.30;;;;;;5060133;28;20553;-41
2022/04/03 06:12:59;;;;;;;4.53;3.03;;;1.50;90.30;;;;;;5065690;28;20227;-40
2022/04/03 06:15:29;;;;;;;6.20;3.20;;;1.50;90.30;;;;;;5062663;28;20203;-41
2022/04/03 06:17:56;;;;;;;6.30;3.30;;;1.50;90.30;;;;;;5061236;28;20219;-40
2022/04/03 06:20:25;;;;;;;5.20;3.40;;;1.50;90.30;;;;;;5047828;28;21658;-41
2022/04/03 06:22:55;;;;;;;4.73;2.80;;;1.50;90.30;;;;;;5066517;28;20200;-41
2022/04/03 06:25:23;;;;;;;5.63;3.27;;;1.50;90.30;;;;;;5061272;28;20810;-40
2022/04/03 06:27:56;;;;;;;8.33;2.83;;;1.60;90.40;;;;;;5058768;28;20220;-41
2022/04/03 06:30:23;;;;;;;7.33;3.43;;;1.60;90.50;;;;;;5053408;28;20204;-41
2022/04/03 06:32:53;;;;;;;7.50;3.50;;;1.60;90.40;;;;;;5060897;28;20214;-40
2022/04/03 06:35:20;;;;;;;6.43;3.57;;;1.70;90.50;;;;;;5064257;28;20583;-40
2022/04/03 06:37:48;;;;;;;5.37;3.17;;;1.70;90.50;;;;;;5062948;28;20202;-41
2022/04/03 06:40:17;;;;;;;7.27;3.57;;;1.70;90.60;;;;;;5057186;28;20204;-40
2022/04/03 06:42:45;;;;;;;5.13;3.10;;;1.80;90.60;;;;;;5055094;28;20597;-41
2022/04/03 06:45:16;;;;;;;4.70;2.77;;;1.90;90.70;;;;;;5057397;28;20315;-40
2022/04/03 06:47:46;;;;;;;6.00;3.03;;;1.90;90.70;;;;;;5052175;28;20222;-40
2022/04/03 06:50:16;;;;;;;4.20;3.17;;;1.90;90.70;;;;;;5056939;28;20200;-40
2022/04/03 06:52:43;;;;;;;4.43;2.97;;;2.00;90.80;;;;;;5053855;28;20630;-40
2022/04/03 06:55:15;;;;;;;6.07;3.30;;;2.00;90.80;;;;;;5057792;28;20232;-40
2022/04/03 06:57:43;;;;;;;5.90;3.20;;;2.10;90.90;;;;;;5062229;28;20220;-40
2022/04/03 07:00:13;;;;;;;4.13;2.60;;;2.10;90.90;;;;;;5063779;28;20868;-40
2022/04/03 07:02:40;;;;;;;4.53;2.50;;;2.20;90.90;;;;;;5049039;28;20236;-40
2022/04/03 07:05:09;;;;;;;3.90;2.60;;;2.30;91.00;;;;;;5056842;28;20260;-40
2022/04/03 07:07:37;;;;;;;5.73;3.20;;;2.30;91.00;;;;;;5049858;28;20210;-40
2022/04/03 07:10:05;;;;;;;4.87;2.47;;;2.40;91.00;;;;;;5062998;28;20212;-33
2022/04/03 07:12:38;;;;;;;6.17;3.00;;;2.40;91.10;;;;;;5067500;28;20230;-34
2022/04/03 07:15:12;;;;;;;6.67;2.90;;;2.50;91.10;;;;;;5066199;28;20214;-34
2022/04/03 07:17:45;;;;;;;5.40;3.17;;;2.60;91.20;;;;;;5049972;28;20300;-34
2022/04/03 07:20:15;;;;;;;4.20;2.80;;;2.70;91.30;;;;;;5064753;28;20238;-34
2022/04/03 07:22:45;;;;;;;6.07;3.33;;;2.70;91.30;;;;;;5063415;28;20666;-34
2022/04/03 07:25:22;;;;;;;4.97;3.30;;;2.80;91.30;;;;;;5064635;28;20427;-33
2022/04/03 07:27:50;;;;;;;5.93;3.10;;;2.80;91.40;;;;;;5063510;28;20211;-34
2022/04/03 07:30:17;;;;;;;4.73;2.90;;;2.90;91.40;;;;;;5063280;28;20247;-34
2022/04/03 07:32:49;;;;;;;5.53;3.10;;;3.00;91.50;;;;;;5059536;28;20199;-34
2022/04/03 07:35:19;;;;;;;6.43;2.60;;;3.00;91.50;;;;;;5065384;28;20578;-34
2022/04/03 07:37:47;;;;;;;5.73;2.73;;;3.10;91.50;;;;;;5063542;28;20618;-34
2022/04/03 07:40:16;;;;;;;4.73;2.93;;;3.20;91.60;;;;;;5055044;28;20200;-34
2022/04/03 07:43:01;;;;;;;4.07;2.90;;;3.20;91.60;;;;;;5066351;28;20257;-40
2022/04/03 07:45:28;;;;;;;4.77;2.70;;;3.30;91.70;;;;;;5069886;28;20203;-40
2022/04/03 07:47:58;;;;;;;4.43;2.73;;;3.30;91.70;;;;;;5059071;28;20277;-40
2022/04/03 07:50:31;;;;;;;7.30;2.83;;;3.40;91.70;;;;;;5060826;28;20201;-40
2022/04/03 07:53:00;;;;;;;5.43;3.00;;;3.50;91.80;;;;;;5063309;28;20210;-40
2022/04/03 07:55:28;;;;;;;4.67;2.80;;;3.50;91.80;;;;;;5059361;28;20806;-40
2022/04/03 07:57:57;;;;;;;3.37;2.33;;;3.60;91.90;;;;;;5060436;28;20576;-40
2022/04/03 08:00:24;;;;;;;4.83;2.23;;;3.70;91.90;;;;;;5057563;28;20226;-40
2022/04/03 08:02:56;;;;;;;3.57;1.90;;;3.70;92.00;;;;;;5062448;28;20397;-41
2022/04/03 08:05:26;;;;;;;2.67;1.73;;;3.80;92.00;;;;;;5066097;28;20672;-41
2022/04/03 08:07:55;;;;;;;2.90;1.47;;;3.80;92.00;;;;;;5065272;28;20223;-41
2022/04/03 08:10:23;;;;;;;4.17;1.53;;;3.90;92.00;;;;;;5066608;28;20210;-40
2022/04/03 08:12:53;;;;;;;5.30;1.80;;;3.90;92.00;;;;;;5054977;28;20208;-40
2022/04/03 08:15:22;;;;;;;3.17;1.60;;;4.00;92.00;;;;;;5058967;28;20317;-40
2022/04/03 08:17:50;;;;;;;5.87;1.87;;;4.00;92.00;;;;;;5061363;28;20219;-40
2022/04/03 08:20:20;;;;;;;2.87;1.50;;;4.10;92.10;;;;;;5060646;28;20671;-41
2022/04/03 08:22:49;;;;;;;2.40;1.03;;;4.10;92.10;;;;;;5059694;28;20202;-40
2022/04/03 08:25:20;;;;;;;1.17;0.70;;;4.20;92.00;;;;;;5057320;28;20192;-41
2022/04/03 08:27:55;;;;;;;2.70;1.10;;;4.20;92.00;;;;;;5058328;28;20235;-41
2022/04/03 08:30:29;;;;;;;1.37;0.80;;;4.30;92.30;;;;;;5053792;28;20208;-41
2022/04/03 08:33:01;;;;;;;3.63;0.60;;;4.40;92.10;;;;;;5050570;28;20231;-41
2022/04/03 08:35:30;;;;;;;0.77;0.43;;;4.40;92.10;;;;;;5064255;28;20200;-41
2022/04/03 08:37:59;;;;;;;1.27;1.00;;;4.40;92.10;;;;;;5066182;28;20215;-41
2022/04/03 08:40:27;;;;;;;1.67;0.93;;;4.50;92.20;;;;;;5049327;28;20218;-41
2022/04/03 08:42:58;;;;;;;2.00;0.80;;;4.60;92.10;;;;;;5050542;28;20699;-40
2022/04/03 08:45:28;;;;;;;1.23;0.90;;;4.70;92.20;;;;;;5063660;28;20636;-40
2022/04/03 08:48:01;;;;;;;1.20;0.90;;;4.70;92.20;;;;;;5066239;28;20219;-40
2022/04/03 08:50:38;;;;;;;1.60;1.10;;;4.80;92.30;;;;;;5065547;28;20589;-41
2022/04/03 08:53:07;;;;;;;1.87;1.10;;;4.80;92.30;;;;;;5059424;28;20191;-41
2022/04/03 08:55:35;;;;;;;5.30;1.20;;;4.90;92.40;;;;;;5069924;28;20326;-34
2022/04/03 08:58:03;;;;;;;1.70;0.90;;;4.90;92.40;;;;;;5069815;28;20200;-34
2022/04/03 09:00:34;;;;;;;2.37;1.00;;;4.90;92.40;;;;;;5059644;28;20686;-34
2022/04/03 09:03:04;;;;;;;2.30;1.30;;;5.00;92.50;;;;;;5064222;28;20207;-34
2022/04/03 09:05:39;;;;;;;4.77;1.60;;;5.00;92.50;;;;;;5060306;28;20650;-34
2022/04/03 09:08:08;;;;;;;4.00;1.10;;;5.10;92.50;;;;;;5059633;28;20545;-34
2022/04/03 09:10:36;;;;;;;4.63;1.20;;;5.10;92.90;;;;;;5060308;28;20604;-34
2022/04/03 09:13:06;;;;;;;2.27;1.30;;;5.20;92.50;;;;;;5062776;28;20228;-35
2022/04/03 09:15:37;;;;;;;4.63;1.20;;;5.20;92.40;;;;;;5062943;28;20212;-35
2022/04/03 09:18:08;;;;;;;1.60;1.20;;;5.30;92.50;;;;;;5062222;28;20227;-35
2022/04/03 09:20:40;;;;;;;2.03;1.10;;;5.40;92.70;;;;;;5068497;28;20196;-35
2022/04/03 09:23:13;;;;;;;3.27;1.10;;;5.40;92.70;;;;;;5050518;28;20235;-35
2022/04/03 09:25:41;;;;;;;3.10;1.10;;;5.50;92.80;;;;;;5069917;28;20242;-34
2022/04/03 09:28:14;;;;;;;1.73;1.00;;;5.50;92.60;;;;;;5057523;28;20258;-34
2022/04/03 09:30:44;;;;;;;2.03;1.00;;;5.60;92.80;;;;;;5049773;28;20202;-34
2022/04/03 09:33:19;;;;;;;2.57;1.13;;;5.60;92.80;;;;;;5061913;28;20211;-34
2022/04/03 09:36:03;;;;;;;3.60;1.10;;;5.70;92.70;;;;;;5066132;28;20195;-34
2022/04/03 09:38:40;;;;;;;1.97;1.30;;;5.80;92.80;;;;;;5056462;28;20266;-35
2022/04/03 09:41:14;;;;;;;2.80;1.43;;;5.80;92.80;;;;;;5055846;28;20206;-34
2022/04/03 09:43:41;;;;;;;2.87;1.10;;;5.80;92.90;;;;;;5053226;28;20754;-34
2022/04/03 09:46:12;;;;;;;2.33;1.10;;;5.90;93.00;;;;;;5053282;28;20235;-35
2022/04/03 09:48:45;;;;;;;1.93;1.33;;;6.00;93.00;;;;;;5060587;28;20227;-34
2022/04/03 09:51:22;;;;;;;3.43;1.33;;;6.00;93.10;;;;;;5049253;28;20299;-41
2022/04/03 09:54:03;;;;;;;2.60;1.17;;;6.10;93.10;;;;;;5059401;28;20661;-40
2022/04/03 09:56:34;;;;;;;3.47;1.43;;;6.10;93.10;;;;;;5060111;28;20222;-41
2022/04/03 09:59:09;;;;;;;3.50;1.57;;;6.20;93.10;;;;;;5061149;28;20217;-41
2022/04/03 10:01:42;;;;;;;2.33;1.27;;;6.20;93.10;;;;;;5059866;28;20191;-41
2022/04/03 10:04:11;;;;;;;1.40;1.30;;;6.30;93.20;;;;;;5050215;28;20258;-35
2022/04/03 10:06:45;;;;;;;1.40;1.30;;;6.30;93.20;;;;;;5057416;28;20219;-34
2022/04/03 10:09:19;;;;;;;2.00;1.30;;;6.30;93.20;;;;;;5067839;28;20229;-34
2022/04/03 10:11:49;;;;;;;2.17;1.50;;;6.40;93.30;;;;;;5062209;28;20193;-34
2022/04/03 10:14:20;;;;;;;2.07;1.40;;;6.50;93.30;;;;;;5055050;28;20227;-34
2022/04/03 10:16:52;;;;;;;4.03;1.40;;;6.50;93.30;;;;;;5066504;28;20670;-34
2022/04/03 10:19:22;;;;;;;2.97;1.37;;;6.60;92.50;;;;;;5062094;28;20265;-34
2022/04/03 10:21:54;;;;;;;2.23;1.23;;;6.70;93.20;;;;;;5051876;28;20196;-34
2022/04/03 10:24:27;;;;;;;3.17;1.20;;;6.70;93.10;;;;;;5050958;28;20224;-34
2022/04/03 10:27:07;;;;;;;4.57;1.47;;;6.80;93.40;;;;;;5056667;28;20670;-34
2022/04/03 10:29:38;;;;;;;2.43;1.40;;;6.80;93.40;;;;;;5054866;28;20637;-34
2022/04/03 10:32:06;;;;;;;3.17;1.27;;;6.90;93.50;;;;;;5056556;28;20277;-35
2022/04/03 10:34:51;;;;;;;1.43;1.00;;;7.00;93.60;;;;;;5063935;28;20207;-34
2022/04/03 10:37:33;;;;;;;2.67;1.30;;;7.10;93.80;;;;;;5050470;28;20204;-34
2022/04/03 10:40:07;;;;;;;2.07;1.50;;;7.20;93.90;;;;;;5059033;28;20215;-41
2022/04/03 10:42:53;;;;;;;2.00;1.10;;;7.30;93.90;;;;;;5061572;28;20210;-41
2022/04/03 10:45:27;;;;;;;2.20;1.30;;;7.40;93.90;;;;;;5071541;28;20210;-41
2022/04/03 10:48:22;;;;;;;2.03;1.40;;;7.50;93.90;;;;;;5066676;28;20202;-41
2022/04/03 10:51:23;;;;;;;4.23;1.57;;;7.50;93.80;;;;;;5058471;28;20273;-40
2022/04/03 10:54:00;;;;;;;1.97;1.33;;;7.60;93.90;;;;;;5068147;28;20246;-41
2022/04/03 10:56:32;;;;;;;2.40;1.43;;;7.60;93.90;;;;;;5068673;28;20203;-41
2022/04/03 10:59:09;;;;;;;2.13;1.20;;;7.60;93.90;;;;;;5054826;28;20211;-41
2022/04/03 11:01:37;;;;;;;3.23;1.37;;;7.70;94.00;;;;;;5068244;28;20689;-39
2022/04/03 11:04:13;;;;;;;1.37;1.20;;;7.80;94.00;;;;;;5065320;28;20204;-40
2022/04/03 11:06:43;;;;;;;1.20;1.10;;;7.80;93.70;;;;;;5065988;28;20219;-39
2022/04/03 11:09:24;;;;;;;2.80;1.30;;;7.80;93.50;;;;;;5064012;28;20242;-39
2022/04/03 11:11:59;;;;;;;1.60;1.07;;;7.90;93.80;;;;;;5068401;28;20291;-40
2022/04/03 11:14:55;;;;;;;2.07;1.13;;;8.00;93.80;;;;;;5050400;28;20232;-40
2022/04/03 11:17:49;;;;;;;3.23;1.30;;;8.00;93.80;;;;;;5048259;28;20253;-40
2022/04/03 11:20:31;;;;;;;3.40;1.63;;;8.10;93.80;;;;;;5053440;28;20688;-40
2022/04/03 11:22:59;;;;;;;1.60;1.40;;;8.10;93.60;;;;;;5066534;28;20616;-40
2022/04/03 11:25:27;;;;;;;1.33;1.23;;;8.10;93.70;;;;;;5065295;28;20246;-40
2022/04/03 11:27:54;;;;;;;2.00;1.20;;;8.10;93.90;;;;;;5073338;28;20590;-40
2022/04/03 11:30:21;;;;;;;3.57;1.37;;;8.10;93.70;;;;;;5074244;28;20702;-40
2022/04/03 11:32:53;;;;;;;2.47;1.30;;;8.20;93.80;;;;;;5068266;28;20286;-40
2022/04/03 11:35:42;;;;;;;2.40;1.40;;;8.20;93.90;;;;;;5059812;28;20203;-40
2022/04/03 11:38:10;;;;;;;2.37;1.53;;;8.30;93.90;;;;;;5055788;28;20200;-40
2022/04/03 11:40:43;;;;;;;2.73;1.30;;;8.40;94.00;;;;;;5062481;28;20967;-39
2022/04/03 11:43:19;;;;;;;3.50;1.60;;;8.40;94.00;;;;;;5047467;28;20277;-39
2022/04/03 11:45:57;;;;;;;2.27;1.63;;;8.50;93.90;;;;;;5055170;28;20199;-39
2022/04/03 11:48:29;;;;;;;6.87;1.80;;;8.50;94.20;;;;;;5056762;28;20230;-39
2022/04/03 11:51:08;;;;;;;2.33;1.80;;;8.60;94.20;;;;;;5058367;28;20252;-39
2022/04/03 11:53:39;;;;;;;1.67;1.50;;;8.70;94.30;;;;;;5053428;28;20234;-40
2022/04/03 11:56:15;;;;;;;2.80;2.07;;;8.80;94.30;;;;;;5067231;28;20195;-39
2022/04/03 11:58:43;;;;;;;3.50;2.17;;;8.90;93.80;;;;;;5061242;28;20206;-40
2022/04/03 12:01:12;;;;;;;3.43;2.10;;;8.80;93.80;;;;;;5060421;28;20215;-39
2022/04/03 12:03:42;;;;;;;2.80;1.87;;;8.90;94.20;;;;;;5048715;28;20214;-39
2022/04/03 12:06:15;;;;;;;2.57;1.80;;;9.00;94.30;;;;;;5050987;28;20248;-39
2022/04/03 12:08:49;;;;;;;2.10;1.50;;;9.10;94.40;;;;;;5064490;28;20311;-39
2022/04/03 12:11:24;;;;;;;3.97;1.37;;;9.20;93.90;;;;;;5064853;28;20773;-39
2022/04/03 12:13:57;;;;;;;1.90;1.10;;;9.10;93.70;;;;;;5066128;28;20195;-39
2022/04/03 12:16:36;;;;;;;2.40;1.30;;;9.20;94.00;;;;;;5060794;28;20199;-39
2022/04/03 12:19:09;;;;;;;2.40;1.10;;;9.20;93.40;;;;;;5063172;28;20227;-39
2022/04/03 12:21:57;;;;;;;1.60;1.30;;;9.30;93.70;;;;;;5064860;28;20199;-39
2022/04/03 12:24:31;;;;;;;2.13;1.30;;;9.40;93.60;;;;;;5063852;28;20192;-39
2022/04/03 12:27:19;;;;;;;1.00;0.80;;;9.40;93.40;;;;;;5046474;28;20294;-40
2022/04/03 12:29:56;;;;;;;1.50;1.30;;;9.50;94.00;;;;;;5055163;28;20736;-40
2022/04/03 12:32:36;;;;;;;1.80;1.43;;;9.60;94.10;;;;;;5060594;28;20195;-40
2022/04/03 12:35:08;;;;;;;1.40;1.30;;;9.70;94.30;;;;;;5054912;28;20215;-40
2022/04/03 12:37:37;;;;;;;2.37;1.23;;;9.80;94.40;;;;;;5061210;28;20200;-39
2022/04/03 12:40:11;;;;;;;2.50;2.20;;;9.90;94.60;;;;;;5055128;28;20535;-40
2022/04/03 12:42:43;;;;;;;3.90;2.87;;;10.00;94.20;;;;;;5065126;28;20200;-40
2022/04/03 12:45:16;;;;;;;3.17;2.20;;;10.10;94.30;;;;;;5062129;28;20273;-40
2022/04/03 12:48:03;;;;;;;2.57;2.10;;;10.20;94.50;;;;;;5052445;28;20253;-40
2022/04/03 12:50:30;;;;;;;2.20;2.00;;;10.30;93.90;;;;;;5062374;28;20674;-40
2022/04/03 12:53:02;;;;;;;4.20;2.20;;;10.30;94.10;;;;;;5057591;28;20203;-40
2022/04/03 12:55:35;;;;;;;2.67;2.13;;;10.40;93.60;;;;;;5052757;28;20326;-40
2022/04/03 12:58:24;;;;;;;2.20;1.97;;;10.40;94.10;;;;;;5052297;28;20207;-40
2022/04/03 13:01:06;;;;;;;2.07;1.50;;;10.50;94.10;;;;;;5057743;28;20223;-40
2022/04/03 13:03:39;;;;;;;2.30;1.70;;;10.40;93.70;;;;;;5052556;28;20207;-40
2022/04/03 13:06:10;;;;;;;1.80;1.70;;;10.50;93.70;;;;;;5060465;28;20204;-41
2022/04/03 13:08:46;;;;;;;2.47;1.60;;;10.50;93.80;;;;;;5061230;28;20213;-41
2022/04/03 13:11:30;;;;;;;3.97;1.90;;;10.50;93.90;;;;;;5060827;28;20228;-41
2022/04/03 13:14:23;;;;;;;2.63;2.43;;;10.60;94.10;;;;;;5056885;28;20474;-41
2022/04/03 13:16:56;;;;;;;5.23;2.73;;;10.60;93.40;;;;;;5050893;28;20311;-41
2022/04/03 13:19:26;;;;;;;2.40;2.20;;;10.60;93.50;;;;;;5055918;28;20212;-41